sensor_id;sensor_type;location;lat;lon;timestamp;temperature;humidity
16532;DHT22;8378;57.698;11.958;2022-12-18T00:01:46;21.20;22.90
16532;DHT22;8378;57.698;11.958;2022-12-18T00:04:23;21.20;22.80
16532;DHT22;8378;57.698;11.958;2022-12-18T00:06:49;21.20;22.80
16532;DHT22;8378;57.698;11.958;2022-12-18T00:09:15;21.20;22.90
16532;DHT22;8378;57.698;11.958;2022-12-18T00:11:40;21.20;22.80
16532;DHT22;8378;57.698;11.958;2022-12-18T00:14:06;21.20;22.80
16532;DHT22;8378;57.698;11.958;2022-12-18T00:16:32;21.20;22.90
16532;DHT22;8378;57.698;11.958;2022-12-18T00:19:00;21.20;22.90
16532;DHT22;8378;57.698;11.958;2022-12-18T00:21:27;21.20;22.90
16532;DHT22;8378;57.698;11.958;2022-12-18T00:23:53;21.20;22.80
16532;DHT22;8378;57.698;11.958;2022-12-18T00:26:25;21.20;22.80
16532;DHT22;8378;57.698;11.958;2022-12-18T00:28:51;21.20;22.80
16532;DHT22;8378;57.698;11.958;2022-12-18T00:31:19;21.20;22.90
16532;DHT22;8378;57.698;11.958;2022-12-18T00:33:45;21.20;22.80
16532;DHT22;8378;57.698;11.958;2022-12-18T00:36:17;21.20;22.90
16532;DHT22;8378;57.698;11.958;2022-12-18T00:38:45;21.20;22.90
16532;DHT22;8378;57.698;11.958;2022-12-18T00:41:13;21.20;22.90
16532;DHT22;8378;57.698;11.958;2022-12-18T00:43:59;21.20;22.90
16532;DHT22;8378;57.698;11.958;2022-12-18T00:46:25;21.20;22.90
16532;DHT22;8378;57.698;11.958;2022-12-18T00:48:50;21.20;22.90
16532;DHT22;8378;57.698;11.958;2022-12-18T00:51:16;21.20;22.90
16532;DHT22;8378;57.698;11.958;2022-12-18T00:53:41;21.20;22.90
16532;DHT22;8378;57.698;11.958;2022-12-18T00:56:07;21.20;23.40
16532;DHT22;8378;57.698;11.958;2022-12-18T00:58:35;21.20;22.90
16532;DHT22;8378;57.698;11.958;2022-12-18T01:01:01;21.20;22.90
16532;DHT22;8378;57.698;11.958;2022-12-18T01:03:28;21.20;22.90
16532;DHT22;8378;57.698;11.958;2022-12-18T01:05:54;21.20;22.90
16532;DHT22;8378;57.698;11.958;2022-12-18T01:08:19;21.20;22.90
16532;DHT22;8378;57.698;11.958;2022-12-18T01:10:45;21.20;22.90
16532;DHT22;8378;57.698;11.958;2022-12-18T01:13:10;21.20;22.90
16532;DHT22;8378;57.698;11.958;2022-12-18T01:15:36;21.20;22.90
16532;DHT22;8378;57.698;11.958;2022-12-18T01:18:05;21.20;23.40
16532;DHT22;8378;57.698;11.958;2022-12-18T01:20:30;21.20;22.90
16532;DHT22;8378;57.698;11.958;2022-12-18T01:22:56;21.20;22.80
16532;DHT22;8378;57.698;11.958;2022-12-18T01:25:21;21.20;22.90
16532;DHT22;8378;57.698;11.958;2022-12-18T01:27:47;21.20;22.90
16532;DHT22;8378;57.698;11.958;2022-12-18T01:30:13;21.20;23.40
16532;DHT22;8378;57.698;11.958;2022-12-18T01:32:38;21.20;22.90
16532;DHT22;8378;57.698;11.958;2022-12-18T01:35:04;21.20;22.90
16532;DHT22;8378;57.698;11.958;2022-12-18T01:37:30;21.20;22.90
16532;DHT22;8378;57.698;11.958;2022-12-18T01:39:56;21.20;22.90
16532;DHT22;8378;57.698;11.958;2022-12-18T01:42:22;21.20;22.80
16532;DHT22;8378;57.698;11.958;2022-12-18T01:50:22;21.20;22.90
16532;DHT22;8378;57.698;11.958;2022-12-18T01:52:54;21.20;22.90
16532;DHT22;8378;57.698;11.958;2022-12-18T01:55:23;21.20;22.90
16532;DHT22;8378;57.698;11.958;2022-12-18T01:57:52;21.20;22.90
16532;DHT22;8378;57.698;11.958;2022-12-18T02:00:21;21.20;22.90
16532;DHT22;8378;57.698;11.958;2022-12-18T02:02:47;21.20;22.90
16532;DHT22;8378;57.698;11.958;2022-12-18T02:05:28;21.20;22.90
16532;DHT22;8378;57.698;11.958;2022-12-18T02:08:16;21.20;22.90
16532;DHT22;8378;57.698;11.958;2022-12-18T02:10:57;21.20;22.90
16532;DHT22;8378;57.698;11.958;2022-12-18T02:13:46;21.20;22.90
16532;DHT22;8378;57.698;11.958;2022-12-18T02:18:57;21.20;22.90
16532;DHT22;8378;57.698;11.958;2022-12-18T02:21:53;21.20;22.90
16532;DHT22;8378;57.698;11.958;2022-12-18T02:24:49;21.20;22.90
16532;DHT22;8378;57.698;11.958;2022-12-18T02:27:19;21.20;22.90
16532;DHT22;8378;57.698;11.958;2022-12-18T02:29:50;21.20;22.90
16532;DHT22;8378;57.698;11.958;2022-12-18T02:32:22;21.20;22.90
16532;DHT22;8378;57.698;11.958;2022-12-18T02:34:50;21.20;22.90
16532;DHT22;8378;57.698;11.958;2022-12-18T02:37:18;21.20;22.90
16532;DHT22;8378;57.698;11.958;2022-12-18T02:39:47;21.20;22.90
16532;DHT22;8378;57.698;11.958;2022-12-18T02:42:14;21.20;22.90
16532;DHT22;8378;57.698;11.958;2022-12-18T02:44:47;21.20;22.90
16532;DHT22;8378;57.698;11.958;2022-12-18T02:47:16;21.20;22.90
16532;DHT22;8378;57.698;11.958;2022-12-18T02:49:54;21.20;22.90
16532;DHT22;8378;57.698;11.958;2022-12-18T02:52:51;21.20;22.90
16532;DHT22;8378;57.698;11.958;2022-12-18T02:58:17;21.20;22.90
16532;DHT22;8378;57.698;11.958;2022-12-18T03:00:53;21.20;22.90
16532;DHT22;8378;57.698;11.958;2022-12-18T03:03:30;21.20;22.90
16532;DHT22;8378;57.698;11.958;2022-12-18T03:06:43;21.20;22.90
16532;DHT22;8378;57.698;11.958;2022-12-18T03:09:14;21.20;22.90
16532;DHT22;8378;57.698;11.958;2022-12-18T03:11:43;21.20;22.90
16532;DHT22;8378;57.698;11.958;2022-12-18T03:14:32;21.20;22.90
16532;DHT22;8378;57.698;11.958;2022-12-18T03:17:02;21.20;22.90
16532;DHT22;8378;57.698;11.958;2022-12-18T03:19:30;21.20;22.90
16532;DHT22;8378;57.698;11.958;2022-12-18T03:21:58;21.20;22.90
16532;DHT22;8378;57.698;11.958;2022-12-18T03:24:28;21.20;22.90
16532;DHT22;8378;57.698;11.958;2022-12-18T03:27:00;21.20;22.90
16532;DHT22;8378;57.698;11.958;2022-12-18T03:29:38;21.20;22.90
16532;DHT22;8378;57.698;11.958;2022-12-18T03:32:09;21.20;22.80
16532;DHT22;8378;57.698;11.958;2022-12-18T03:34:38;21.20;22.90
16532;DHT22;8378;57.698;11.958;2022-12-18T03:37:05;21.20;22.90
16532;DHT22;8378;57.698;11.958;2022-12-18T03:39:31;21.20;22.90
16532;DHT22;8378;57.698;11.958;2022-12-18T03:42:21;21.20;22.80
16532;DHT22;8378;57.698;11.958;2022-12-18T03:45:16;21.20;22.90
16532;DHT22;8378;57.698;11.958;2022-12-18T03:47:55;21.20;22.90
16532;DHT22;8378;57.698;11.958;2022-12-18T03:50:33;21.20;22.90
16532;DHT22;8378;57.698;11.958;2022-12-18T03:53:47;21.20;22.80
16532;DHT22;8378;57.698;11.958;2022-12-18T03:55:53;21.20;22.90
16532;DHT22;8378;57.698;11.958;2022-12-18T03:58:24;21.20;22.90
16532;DHT22;8378;57.698;11.958;2022-12-18T04:00:52;21.20;22.90
16532;DHT22;8378;57.698;11.958;2022-12-18T04:03:19;21.20;23.40
16532;DHT22;8378;57.698;11.958;2022-12-18T04:05:46;21.20;22.90
16532;DHT22;8378;57.698;11.958;2022-12-18T04:08:13;21.20;22.90
16532;DHT22;8378;57.698;11.958;2022-12-18T04:10:39;21.20;22.90
16532;DHT22;8378;57.698;11.958;2022-12-18T04:13:05;21.20;22.90
16532;DHT22;8378;57.698;11.958;2022-12-18T04:15:33;21.20;22.90
16532;DHT22;8378;57.698;11.958;2022-12-18T04:17:59;21.20;22.80
16532;DHT22;8378;57.698;11.958;2022-12-18T04:20:25;21.20;22.80
16532;DHT22;8378;57.698;11.958;2022-12-18T04:22:50;21.20;22.80
16532;DHT22;8378;57.698;11.958;2022-12-18T04:25:16;21.20;22.80
16532;DHT22;8378;57.698;11.958;2022-12-18T04:27:41;21.20;22.90
16532;DHT22;8378;57.698;11.958;2022-12-18T04:30:07;21.20;23.30
16532;DHT22;8378;57.698;11.958;2022-12-18T04:32:34;21.20;22.80
16532;DHT22;8378;57.698;11.958;2022-12-18T04:35:00;21.20;22.80
16532;DHT22;8378;57.698;11.958;2022-12-18T04:37:25;21.20;22.80
16532;DHT22;8378;57.698;11.958;2022-12-18T04:39:51;21.20;22.90
16532;DHT22;8378;57.698;11.958;2022-12-18T04:42:16;21.20;22.80
16532;DHT22;8378;57.698;11.958;2022-12-18T04:44:42;21.20;22.90
16532;DHT22;8378;57.698;11.958;2022-12-18T04:47:07;21.20;22.90
16532;DHT22;8378;57.698;11.958;2022-12-18T04:49:33;21.20;22.90
16532;DHT22;8378;57.698;11.958;2022-12-18T04:51:58;21.20;22.90
16532;DHT22;8378;57.698;11.958;2022-12-18T04:54:24;21.20;22.90
16532;DHT22;8378;57.698;11.958;2022-12-18T04:56:50;21.30;22.90
16532;DHT22;8378;57.698;11.958;2022-12-18T04:59:16;21.30;22.90
16532;DHT22;8378;57.698;11.958;2022-12-18T05:01:42;21.30;23.00
16532;DHT22;8378;57.698;11.958;2022-12-18T05:04:07;21.30;23.00
16532;DHT22;8378;57.698;11.958;2022-12-18T05:06:33;21.30;23.40
16532;DHT22;8378;57.698;11.958;2022-12-18T05:08:58;21.30;23.00
16532;DHT22;8378;57.698;11.958;2022-12-18T05:11:24;21.30;23.00
16532;DHT22;8378;57.698;11.958;2022-12-18T05:13:49;21.20;22.90
16532;DHT22;8378;57.698;11.958;2022-12-18T05:16:15;21.30;22.90
16532;DHT22;8378;57.698;11.958;2022-12-18T05:18:41;21.30;23.00
16532;DHT22;8378;57.698;11.958;2022-12-18T05:21:07;21.20;22.90
16532;DHT22;8378;57.698;11.958;2022-12-18T05:23:36;21.30;22.90
16532;DHT22;8378;57.698;11.958;2022-12-18T05:26:04;21.30;22.90
16532;DHT22;8378;57.698;11.958;2022-12-18T05:28:32;21.30;22.90
16532;DHT22;8378;57.698;11.958;2022-12-18T05:31:00;21.30;22.90
16532;DHT22;8378;57.698;11.958;2022-12-18T05:33:29;21.20;22.80
16532;DHT22;8378;57.698;11.958;2022-12-18T05:35:57;21.20;22.80
16532;DHT22;8378;57.698;11.958;2022-12-18T05:38:25;21.30;22.90
16532;DHT22;8378;57.698;11.958;2022-12-18T05:40:52;21.30;22.90
16532;DHT22;8378;57.698;11.958;2022-12-18T05:43:19;21.20;22.90
16532;DHT22;8378;57.698;11.958;2022-12-18T05:45:45;21.30;22.90
16532;DHT22;8378;57.698;11.958;2022-12-18T05:48:14;21.30;22.90
16532;DHT22;8378;57.698;11.958;2022-12-18T05:50:42;21.30;22.90
16532;DHT22;8378;57.698;11.958;2022-12-18T05:53:08;21.20;22.90
16532;DHT22;8378;57.698;11.958;2022-12-18T05:55:38;21.30;23.00
16532;DHT22;8378;57.698;11.958;2022-12-18T05:58:05;21.20;22.90
16532;DHT22;8378;57.698;11.958;2022-12-18T06:00:33;21.20;22.90
16532;DHT22;8378;57.698;11.958;2022-12-18T06:03:00;21.30;23.00
16532;DHT22;8378;57.698;11.958;2022-12-18T06:05:26;21.20;22.90
16532;DHT22;8378;57.698;11.958;2022-12-18T06:07:52;21.30;23.00
16532;DHT22;8378;57.698;11.958;2022-12-18T06:10:18;21.20;22.90
16532;DHT22;8378;57.698;11.958;2022-12-18T06:12:44;21.30;23.00
16532;DHT22;8378;57.698;11.958;2022-12-18T06:15:10;21.30;23.00
16532;DHT22;8378;57.698;11.958;2022-12-18T06:17:35;21.30;23.00
16532;DHT22;8378;57.698;11.958;2022-12-18T06:20:02;21.30;23.00
16532;DHT22;8378;57.698;11.958;2022-12-18T06:22:28;21.30;23.00
16532;DHT22;8378;57.698;11.958;2022-12-18T06:24:55;21.30;23.00
16532;DHT22;8378;57.698;11.958;2022-12-18T06:27:21;21.30;23.00
16532;DHT22;8378;57.698;11.958;2022-12-18T06:29:46;21.30;22.90
16532;DHT22;8378;57.698;11.958;2022-12-18T06:32:13;21.30;22.90
16532;DHT22;8378;57.698;11.958;2022-12-18T06:34:38;21.30;23.00
16532;DHT22;8378;57.698;11.958;2022-12-18T06:37:04;21.30;22.90
16532;DHT22;8378;57.698;11.958;2022-12-18T06:39:30;21.30;22.90
16532;DHT22;8378;57.698;11.958;2022-12-18T06:41:55;21.30;22.90
16532;DHT22;8378;57.698;11.958;2022-12-18T06:44:21;21.30;22.90
16532;DHT22;8378;57.698;11.958;2022-12-18T06:46:46;21.30;22.90
16532;DHT22;8378;57.698;11.958;2022-12-18T06:49:12;21.30;22.90
16532;DHT22;8378;57.698;11.958;2022-12-18T06:51:38;21.30;22.90
16532;DHT22;8378;57.698;11.958;2022-12-18T06:54:03;21.30;23.30
16532;DHT22;8378;57.698;11.958;2022-12-18T06:56:29;21.30;22.90
16532;DHT22;8378;57.698;11.958;2022-12-18T06:58:55;21.30;22.90
16532;DHT22;8378;57.698;11.958;2022-12-18T07:01:20;21.30;22.90
16532;DHT22;8378;57.698;11.958;2022-12-18T07:03:46;21.30;22.90
16532;DHT22;8378;57.698;11.958;2022-12-18T07:06:22;21.30;22.90
16532;DHT22;8378;57.698;11.958;2022-12-18T07:08:49;21.30;22.80
16532;DHT22;8378;57.698;11.958;2022-12-18T07:11:16;21.30;22.90
16532;DHT22;8378;57.698;11.958;2022-12-18T07:13:42;21.30;22.90
16532;DHT22;8378;57.698;11.958;2022-12-18T07:16:09;21.30;22.80
16532;DHT22;8378;57.698;11.958;2022-12-18T07:18:35;21.30;22.90
16532;DHT22;8378;57.698;11.958;2022-12-18T07:21:15;21.30;22.90
16532;DHT22;8378;57.698;11.958;2022-12-18T07:23:41;21.30;22.80
16532;DHT22;8378;57.698;11.958;2022-12-18T07:26:12;21.30;22.80
16532;DHT22;8378;57.698;11.958;2022-12-18T07:28:39;21.30;22.80
16532;DHT22;8378;57.698;11.958;2022-12-18T07:31:12;21.30;22.80
16532;DHT22;8378;57.698;11.958;2022-12-18T07:33:37;21.30;22.80
16532;DHT22;8378;57.698;11.958;2022-12-18T07:36:05;21.30;22.80
16532;DHT22;8378;57.698;11.958;2022-12-18T07:38:32;21.30;22.80
16532;DHT22;8378;57.698;11.958;2022-12-18T07:41:05;21.30;22.80
16532;DHT22;8378;57.698;11.958;2022-12-18T07:43:31;21.30;22.80
16532;DHT22;8378;57.698;11.958;2022-12-18T07:45:57;21.30;22.80
16532;DHT22;8378;57.698;11.958;2022-12-18T07:48:23;21.30;22.80
16532;DHT22;8378;57.698;11.958;2022-12-18T07:50:49;21.30;22.80
16532;DHT22;8378;57.698;11.958;2022-12-18T07:53:14;21.30;22.80
16532;DHT22;8378;57.698;11.958;2022-12-18T07:55:41;21.30;22.80
16532;DHT22;8378;57.698;11.958;2022-12-18T07:58:07;21.30;22.90
16532;DHT22;8378;57.698;11.958;2022-12-18T08:00:32;21.30;23.00
16532;DHT22;8378;57.698;11.958;2022-12-18T08:02:58;21.30;23.00
16532;DHT22;8378;57.698;11.958;2022-12-18T08:05:24;21.30;23.20
16532;DHT22;8378;57.698;11.958;2022-12-18T08:07:49;21.30;23.30
16532;DHT22;8378;57.698;11.958;2022-12-18T08:10:15;21.30;23.50
16532;DHT22;8378;57.698;11.958;2022-12-18T08:12:41;21.30;23.60
16532;DHT22;8378;57.698;11.958;2022-12-18T08:15:07;21.30;23.70
16532;DHT22;8378;57.698;11.958;2022-12-18T08:17:33;21.30;23.70
16532;DHT22;8378;57.698;11.958;2022-12-18T08:19:58;21.30;23.60
16532;DHT22;8378;57.698;11.958;2022-12-18T08:22:24;21.30;23.70
16532;DHT22;8378;57.698;11.958;2022-12-18T08:24:50;21.30;23.60
16532;DHT22;8378;57.698;11.958;2022-12-18T08:27:15;21.30;23.60
16532;DHT22;8378;57.698;11.958;2022-12-18T08:29:41;21.30;23.60
16532;DHT22;8378;57.698;11.958;2022-12-18T08:32:07;21.30;23.60
16532;DHT22;8378;57.698;11.958;2022-12-18T08:34:33;21.30;23.50
16532;DHT22;8378;57.698;11.958;2022-12-18T08:36:58;21.30;23.60
16532;DHT22;8378;57.698;11.958;2022-12-18T08:39:24;21.30;23.60
16532;DHT22;8378;57.698;11.958;2022-12-18T08:41:49;21.30;23.70
16532;DHT22;8378;57.698;11.958;2022-12-18T08:44:34;21.30;23.90
16532;DHT22;8378;57.698;11.958;2022-12-18T08:47:02;21.30;24.00
16532;DHT22;8378;57.698;11.958;2022-12-18T08:49:28;21.30;24.10
16532;DHT22;8378;57.698;11.958;2022-12-18T08:51:57;21.30;24.20
16532;DHT22;8378;57.698;11.958;2022-12-18T08:54:23;21.30;24.40
16532;DHT22;8378;57.698;11.958;2022-12-18T08:56:49;21.30;24.50
16532;DHT22;8378;57.698;11.958;2022-12-18T08:59:16;21.30;24.70
16532;DHT22;8378;57.698;11.958;2022-12-18T09:01:42;21.30;24.80
16532;DHT22;8378;57.698;11.958;2022-12-18T09:04:11;21.30;24.90
16532;DHT22;8378;57.698;11.958;2022-12-18T09:06:37;21.30;25.00
16532;DHT22;8378;57.698;11.958;2022-12-18T09:09:04;21.40;25.10
16532;DHT22;8378;57.698;11.958;2022-12-18T09:11:30;21.40;25.20
16532;DHT22;8378;57.698;11.958;2022-12-18T09:13:57;21.40;25.30
16532;DHT22;8378;57.698;11.958;2022-12-18T09:16:24;21.40;25.40
16532;DHT22;8378;57.698;11.958;2022-12-18T09:18:50;21.30;25.30
16532;DHT22;8378;57.698;11.958;2022-12-18T09:21:18;21.40;25.40
16532;DHT22;8378;57.698;11.958;2022-12-18T09:23:48;21.30;25.30
16532;DHT22;8378;57.698;11.958;2022-12-18T09:26:14;21.30;25.30
16532;DHT22;8378;57.698;11.958;2022-12-18T09:28:40;21.40;25.40
16532;DHT22;8378;57.698;11.958;2022-12-18T09:31:07;21.30;25.30
16532;DHT22;8378;57.698;11.958;2022-12-18T09:33:36;21.30;25.30
16532;DHT22;8378;57.698;11.958;2022-12-18T09:36:04;21.40;25.40
16532;DHT22;8378;57.698;11.958;2022-12-18T09:38:30;21.40;25.50
16532;DHT22;8378;57.698;11.958;2022-12-18T09:41:04;21.40;25.60
16532;DHT22;8378;57.698;11.958;2022-12-18T09:43:43;21.40;25.70
16532;DHT22;8378;57.698;11.958;2022-12-18T09:47:16;21.40;26.30
16532;DHT22;8378;57.698;11.958;2022-12-18T09:49:14;21.40;25.90
16532;DHT22;8378;57.698;11.958;2022-12-18T09:51:54;21.40;26.00
16532;DHT22;8378;57.698;11.958;2022-12-18T09:54:26;21.40;26.00
16532;DHT22;8378;57.698;11.958;2022-12-18T09:56:54;21.30;26.00
16532;DHT22;8378;57.698;11.958;2022-12-18T09:59:37;21.40;26.10
16532;DHT22;8378;57.698;11.958;2022-12-18T10:02:18;21.40;26.10
16532;DHT22;8378;57.698;11.958;2022-12-18T10:20:52;21.40;26.30
16532;DHT22;8378;57.698;11.958;2022-12-18T10:26:12;21.40;26.20
16532;DHT22;8378;57.698;11.958;2022-12-18T10:28:40;21.40;26.20
16532;DHT22;8378;57.698;11.958;2022-12-18T10:31:17;21.40;26.30
16532;DHT22;8378;57.698;11.958;2022-12-18T10:33:44;21.40;26.20
16532;DHT22;8378;57.698;11.958;2022-12-18T10:36:09;21.40;26.10
16532;DHT22;8378;57.698;11.958;2022-12-18T10:38:35;21.40;26.10
16532;DHT22;8378;57.698;11.958;2022-12-18T10:43:30;21.40;26.00
16532;DHT22;8378;57.698;11.958;2022-12-18T10:51:05;21.40;26.10
16532;DHT22;8378;57.698;11.958;2022-12-18T10:53:33;21.50;26.30
16532;DHT22;8378;57.698;11.958;2022-12-18T10:56:04;21.40;26.40
16532;DHT22;8378;57.698;11.958;2022-12-18T10:58:33;21.40;26.50
16532;DHT22;8378;57.698;11.958;2022-12-18T11:01:14;21.40;26.50
16532;DHT22;8378;57.698;11.958;2022-12-18T11:03:58;21.40;26.60
16532;DHT22;8378;57.698;11.958;2022-12-18T11:06:25;21.40;26.50
16532;DHT22;8378;57.698;11.958;2022-12-18T11:09:03;21.50;26.50
16532;DHT22;8378;57.698;11.958;2022-12-18T11:11:31;21.50;26.50
16532;DHT22;8378;57.698;11.958;2022-12-18T11:14:16;21.50;26.40
16532;DHT22;8378;57.698;11.958;2022-12-18T11:16:45;21.50;26.40
16532;DHT22;8378;57.698;11.958;2022-12-18T11:20:20;21.50;26.40
16532;DHT22;8378;57.698;11.958;2022-12-18T11:22:26;21.50;26.50
16532;DHT22;8378;57.698;11.958;2022-12-18T11:24:56;21.50;26.60
16532;DHT22;8378;57.698;11.958;2022-12-18T11:27:22;21.50;26.60
16532;DHT22;8378;57.698;11.958;2022-12-18T11:29:50;21.50;26.50
16532;DHT22;8378;57.698;11.958;2022-12-18T11:32:46;21.50;26.50
16532;DHT22;8378;57.698;11.958;2022-12-18T11:35:19;21.50;26.40
16532;DHT22;8378;57.698;11.958;2022-12-18T11:37:54;21.50;26.40
16532;DHT22;8378;57.698;11.958;2022-12-18T11:40:30;21.50;26.30
16532;DHT22;8378;57.698;11.958;2022-12-18T11:43:06;21.50;26.30
16532;DHT22;8378;57.698;11.958;2022-12-18T11:45:43;21.50;26.20
16532;DHT22;8378;57.698;11.958;2022-12-18T11:48:34;21.50;26.20
16532;DHT22;8378;57.698;11.958;2022-12-18T11:51:05;21.50;26.10
16532;DHT22;8378;57.698;11.958;2022-12-18T11:53:34;21.50;26.10
16532;DHT22;8378;57.698;11.958;2022-12-18T11:56:31;21.50;26.10
16532;DHT22;8378;57.698;11.958;2022-12-18T12:08:43;21.50;26.00
16532;DHT22;8378;57.698;11.958;2022-12-18T12:17:03;21.50;26.30
16532;DHT22;8378;57.698;11.958;2022-12-18T12:19:37;21.50;25.80
16532;DHT22;8378;57.698;11.958;2022-12-18T12:22:23;21.50;25.80
16532;DHT22;8378;57.698;11.958;2022-12-18T12:25:18;21.50;25.90
16532;DHT22;8378;57.698;11.958;2022-12-18T12:31:01;21.50;25.90
16532;DHT22;8378;57.698;11.958;2022-12-18T12:33:54;21.50;25.90
16532;DHT22;8378;57.698;11.958;2022-12-18T12:36:57;21.50;26.00
16532;DHT22;8378;57.698;11.958;2022-12-18T12:39:22;21.50;26.00
16532;DHT22;8378;57.698;11.958;2022-12-18T12:41:48;21.50;26.00
16532;DHT22;8378;57.698;11.958;2022-12-18T12:44:39;21.50;26.00
16532;DHT22;8378;57.698;11.958;2022-12-18T12:47:38;21.50;26.00
16532;DHT22;8378;57.698;11.958;2022-12-18T12:50:16;21.50;26.00
16532;DHT22;8378;57.698;11.958;2022-12-18T12:52:47;21.50;26.00
16532;DHT22;8378;57.698;11.958;2022-12-18T12:55:26;21.50;26.00
16532;DHT22;8378;57.698;11.958;2022-12-18T12:58:12;21.50;26.10
16532;DHT22;8378;57.698;11.958;2022-12-18T13:00:55;21.50;26.00
16532;DHT22;8378;57.698;11.958;2022-12-18T13:06:32;21.50;26.00
16532;DHT22;8378;57.698;11.958;2022-12-18T13:09:00;21.50;26.00
16532;DHT22;8378;57.698;11.958;2022-12-18T13:11:43;21.50;26.00
16532;DHT22;8378;57.698;11.958;2022-12-18T13:14:37;21.50;26.00
16532;DHT22;8378;57.698;11.958;2022-12-18T13:20:06;21.50;26.00
16532;DHT22;8378;57.698;11.958;2022-12-18T13:22:47;21.60;26.10
16532;DHT22;8378;57.698;11.958;2022-12-18T13:25:50;21.60;26.10
16532;DHT22;8378;57.698;11.958;2022-12-18T13:28:20;21.60;26.10
16532;DHT22;8378;57.698;11.958;2022-12-18T13:30:49;21.50;25.90
16532;DHT22;8378;57.698;11.958;2022-12-18T13:35:50;21.60;25.90
16532;DHT22;8378;57.698;11.958;2022-12-18T13:41:21;21.60;25.90
16532;DHT22;8378;57.698;11.958;2022-12-18T13:43:48;21.60;25.90
16532;DHT22;8378;57.698;11.958;2022-12-18T13:46:42;21.60;25.80
16532;DHT22;8378;57.698;11.958;2022-12-18T13:51:42;21.60;25.80
16532;DHT22;8378;57.698;11.958;2022-12-18T13:54:19;21.60;25.80
16532;DHT22;8378;57.698;11.958;2022-12-18T13:56:47;21.60;25.80
16532;DHT22;8378;57.698;11.958;2022-12-18T13:59:25;21.60;25.80
16532;DHT22;8378;57.698;11.958;2022-12-18T14:01:59;21.60;25.80
16532;DHT22;8378;57.698;11.958;2022-12-18T14:04:29;21.60;25.80
16532;DHT22;8378;57.698;11.958;2022-12-18T14:09:29;21.60;25.80
16532;DHT22;8378;57.698;11.958;2022-12-18T14:11:56;21.60;25.70
16532;DHT22;8378;57.698;11.958;2022-12-18T14:14:48;21.60;25.70
16532;DHT22;8378;57.698;11.958;2022-12-18T14:17:15;21.60;25.70
16532;DHT22;8378;57.698;11.958;2022-12-18T14:19:45;21.60;25.70
16532;DHT22;8378;57.698;11.958;2022-12-18T14:22:20;21.60;25.60
16532;DHT22;8378;57.698;11.958;2022-12-18T14:24:47;21.60;25.60
16532;DHT22;8378;57.698;11.958;2022-12-18T14:27:24;21.60;25.60
16532;DHT22;8378;57.698;11.958;2022-12-18T14:29:50;21.60;25.60
16532;DHT22;8378;57.698;11.958;2022-12-18T14:32:20;21.60;25.60
16532;DHT22;8378;57.698;11.958;2022-12-18T14:34:50;21.60;25.50
16532;DHT22;8378;57.698;11.958;2022-12-18T14:37:21;21.60;25.10
16532;DHT22;8378;57.698;11.958;2022-12-18T14:40:01;21.60;24.90
16532;DHT22;8378;57.698;11.958;2022-12-18T14:42:31;21.60;24.90
16532;DHT22;8378;57.698;11.958;2022-12-18T14:45:34;21.60;25.30
16532;DHT22;8378;57.698;11.958;2022-12-18T14:50:33;21.60;25.70
16532;DHT22;8378;57.698;11.958;2022-12-18T14:52:59;21.50;25.90
16532;DHT22;8378;57.698;11.958;2022-12-18T14:55:25;21.60;26.20
16532;DHT22;8378;57.698;11.958;2022-12-18T14:57:55;21.50;26.40
16532;DHT22;8378;57.698;11.958;2022-12-18T15:00:23;21.50;26.60
16532;DHT22;8378;57.698;11.958;2022-12-18T15:02:56;21.50;26.80
16532;DHT22;8378;57.698;11.958;2022-12-18T15:05:28;21.60;27.00
16532;DHT22;8378;57.698;11.958;2022-12-18T15:07:56;21.50;27.00
16532;DHT22;8378;57.698;11.958;2022-12-18T15:10:28;21.50;27.10
16532;DHT22;8378;57.698;11.958;2022-12-18T15:15:48;21.50;27.20
16532;DHT22;8378;57.698;11.958;2022-12-18T15:18:31;21.60;27.30
16532;DHT22;8378;57.698;11.958;2022-12-18T15:20:59;21.60;27.30
16532;DHT22;8378;57.698;11.958;2022-12-18T15:23:52;21.50;27.20
16532;DHT22;8378;57.698;11.958;2022-12-18T15:26:21;21.50;26.90
16532;DHT22;8378;57.698;11.958;2022-12-18T15:28:50;21.60;27.10
16532;DHT22;8378;57.698;11.958;2022-12-18T15:31:20;21.60;27.20
16532;DHT22;8378;57.698;11.958;2022-12-18T15:36:20;21.60;27.30
16532;DHT22;8378;57.698;11.958;2022-12-18T15:38:48;21.60;27.20
16532;DHT22;8378;57.698;11.958;2022-12-18T15:41:15;21.60;27.20
16532;DHT22;8378;57.698;11.958;2022-12-18T15:43:41;21.60;27.10
16532;DHT22;8378;57.698;11.958;2022-12-18T15:46:14;21.60;27.10
16532;DHT22;8378;57.698;11.958;2022-12-18T15:48:42;21.60;27.60
16532;DHT22;8378;57.698;11.958;2022-12-18T15:51:23;21.60;27.10
16532;DHT22;8378;57.698;11.958;2022-12-18T15:53:53;21.60;27.10
16532;DHT22;8378;57.698;11.958;2022-12-18T15:56:19;21.60;27.20
16532;DHT22;8378;57.698;11.958;2022-12-18T15:59:12;21.60;27.20
16532;DHT22;8378;57.698;11.958;2022-12-18T16:01:38;21.60;27.30
16532;DHT22;8378;57.698;11.958;2022-12-18T16:04:04;21.60;27.30
16532;DHT22;8378;57.698;11.958;2022-12-18T16:06:30;21.60;27.30
16532;DHT22;8378;57.698;11.958;2022-12-18T16:08:55;21.60;27.30
16532;DHT22;8378;57.698;11.958;2022-12-18T16:11:29;21.60;27.40
16532;DHT22;8378;57.698;11.958;2022-12-18T16:16:44;21.70;27.30
16532;DHT22;8378;57.698;11.958;2022-12-18T16:19:10;21.60;27.30
16532;DHT22;8378;57.698;11.958;2022-12-18T16:21:35;21.60;27.30
16532;DHT22;8378;57.698;11.958;2022-12-18T16:24:01;21.60;27.30
16532;DHT22;8378;57.698;11.958;2022-12-18T16:26:26;21.70;27.40
16532;DHT22;8378;57.698;11.958;2022-12-18T16:28:52;21.70;27.40
16532;DHT22;8378;57.698;11.958;2022-12-18T16:31:18;21.70;27.40
16532;DHT22;8378;57.698;11.958;2022-12-18T16:33:44;21.70;27.40
16532;DHT22;8378;57.698;11.958;2022-12-18T16:36:10;21.70;27.40
16532;DHT22;8378;57.698;11.958;2022-12-18T16:38:35;21.60;27.40
16532;DHT22;8378;57.698;11.958;2022-12-18T16:41:01;21.70;27.40
16532;DHT22;8378;57.698;11.958;2022-12-18T16:43:45;21.70;27.50
16532;DHT22;8378;57.698;11.958;2022-12-18T16:46:10;21.70;27.40
16532;DHT22;8378;57.698;11.958;2022-12-18T16:48:36;21.70;27.30
16532;DHT22;8378;57.698;11.958;2022-12-18T16:51:03;21.70;27.80
16532;DHT22;8378;57.698;11.958;2022-12-18T16:53:29;21.70;27.30
16532;DHT22;8378;57.698;11.958;2022-12-18T16:55:56;21.70;27.20
16532;DHT22;8378;57.698;11.958;2022-12-18T16:58:21;21.70;27.30
16532;DHT22;8378;57.698;11.958;2022-12-18T17:00:47;21.70;27.30
16532;DHT22;8378;57.698;11.958;2022-12-18T17:03:12;21.70;27.40
16532;DHT22;8378;57.698;11.958;2022-12-18T17:05:38;21.70;27.30
16532;DHT22;8378;57.698;11.958;2022-12-18T17:08:04;21.70;27.30
16532;DHT22;8378;57.698;11.958;2022-12-18T17:10:29;21.70;27.30
16532;DHT22;8378;57.698;11.958;2022-12-18T17:12:55;21.70;27.20
16532;DHT22;8378;57.698;11.958;2022-12-18T17:15:20;21.70;27.10